Time;durP1;ratioP1;P1;durP2;ratioP2;P2;SDS_P1;SDS_P2;PMS_P1;PMS_P2;Temp;Humidity;BMP_temperature;BMP_pressure;BME280_temperature;BME280_humidity;BME280_pressure;Samples;Min_cycle;Max_cycle;Signal;HPM_P1;HPM_P2
2023/10/10 00:00:04;;;;;;;24.37;23.03;;;;;;;;;;5108200;28;20567;-76
2023/10/10 00:02:31;;;;;;;23.53;21.83;;;;;;;;;;5108366;28;20434;-76
2023/10/10 00:05:03;;;;;;;23.60;22.30;;;;;;;;;;5107579;28;20456;-76
2023/10/10 00:07:34;;;;;;;23.70;22.30;;;;;;;;;;5107935;28;20472;-76
2023/10/10 00:10:01;;;;;;;22.80;21.50;;;;;;;;;;5107159;28;20467;-76
2023/10/10 00:12:30;;;;;;;24.87;23.17;;;;;;;;;;5107883;28;20467;-77
2023/10/10 00:14:58;;;;;;;25.03;23.43;;;;;;;;;;5107398;28;20479;-76
2023/10/10 00:17:34;;;;;;;24.67;22.60;;;;;;;;;;5107771;28;20894;-77
2023/10/10 00:20:06;;;;;;;24.53;22.93;;;;;;;;;;5107977;28;20820;-75
2023/10/10 00:22:36;;;;;;;22.60;21.20;;;;;;;;;;5107927;28;20445;-76
2023/10/10 00:25:12;;;;;;;22.83;21.30;;;;;;;;;;5112939;28;20466;-76
2023/10/10 00:27:43;;;;;;;24.30;22.70;;;;;;;;;;5127727;27;20466;-76
2023/10/10 00:30:14;;;;;;;24.80;23.00;;;;;;;;;;5128148;28;20434;-77
2023/10/10 00:32:43;;;;;;;24.10;22.00;;;;;;;;;;5127766;28;20443;-76
2023/10/10 00:35:10;;;;;;;24.20;22.40;;;;;;;;;;5127116;28;20447;-77
2023/10/10 00:37:37;;;;;;;22.50;21.17;;;;;;;;;;5127776;27;20464;-76
2023/10/10 00:40:08;;;;;;;23.03;21.60;;;;;;;;;;5126516;27;20453;-76
2023/10/10 00:42:41;;;;;;;23.27;21.57;;;;;;;;;;5127983;28;20458;-77
2023/10/10 00:45:13;;;;;;;22.87;21.37;;;;;;;;;;5127254;28;20398;-77
2023/10/10 00:47:43;;;;;;;22.80;21.40;;;;;;;;;;5124508;28;20566;-76
2023/10/10 00:50:17;;;;;;;22.90;21.23;;;;;;;;;;5126718;28;20463;-76
2023/10/10 00:52:46;;;;;;;24.20;21.63;;;;;;;;;;5119102;28;20432;-76
2023/10/10 00:55:13;;;;;;;23.47;22.20;;;;;;;;;;5113402;28;20461;-76
2023/10/10 00:57:42;;;;;;;24.00;21.90;;;;;;;;;;5113639;28;20508;-77
2023/10/10 01:00:15;;;;;;;24.03;22.40;;;;;;;;;;5093046;28;20660;-77
2023/10/10 01:02:42;;;;;;;22.73;21.17;;;;;;;;;;5093521;28;20454;-76
2023/10/10 01:05:13;;;;;;;22.93;21.53;;;;;;;;;;5093096;28;20455;-76
2023/10/10 01:07:40;;;;;;;23.50;21.57;;;;;;;;;;5093769;28;20460;-76
2023/10/10 01:10:12;;;;;;;22.73;21.13;;;;;;;;;;5092943;28;20536;-76
2023/10/10 01:12:40;;;;;;;22.13;20.83;;;;;;;;;;5093218;28;20421;-76
2023/10/10 01:15:14;;;;;;;22.67;21.17;;;;;;;;;;5092586;28;20449;-77
2023/10/10 01:17:43;;;;;;;24.73;23.00;;;;;;;;;;5093347;28;20442;-76
2023/10/10 01:20:17;;;;;;;23.03;21.63;;;;;;;;;;5092780;28;20963;-76
2023/10/10 01:22:48;;;;;;;22.23;20.80;;;;;;;;;;5103673;28;20459;-76
2023/10/10 01:28:05;;;;;;;22.90;21.40;;;;;;;;;;5113111;28;20451;-76
2023/10/10 01:30:56;;;;;;;23.20;21.60;;;;;;;;;;5113199;28;20988;-77
2023/10/10 01:33:35;;;;;;;24.50;22.57;;;;;;;;;;5113021;28;20432;-77
2023/10/10 01:36:11;;;;;;;24.60;22.77;;;;;;;;;;5112542;28;20436;-77
2023/10/10 01:38:55;;;;;;;25.07;22.87;;;;;;;;;;5112874;28;20455;-76
2023/10/10 01:41:23;;;;;;;24.83;23.27;;;;;;;;;;5112669;28;21009;-76
2023/10/10 01:43:53;;;;;;;22.63;21.37;;;;;;;;;;5112229;28;20924;-76
2023/10/10 01:46:27;;;;;;;23.70;22.10;;;;;;;;;;5112837;28;20474;-76
2023/10/10 01:49:20;;;;;;;22.73;21.23;;;;;;;;;;5067087;28;20476;-76
2023/10/10 01:51:50;;;;;;;24.07;22.60;;;;;;;;;;5102537;28;20443;-77
2023/10/10 01:54:20;;;;;;;23.20;22.03;;;;;;;;;;5112432;28;20432;-76
2023/10/10 01:56:47;;;;;;;23.50;22.07;;;;;;;;;;5112726;28;20475;-77
2023/10/10 01:59:19;;;;;;;24.00;22.50;;;;;;;;;;5112266;28;21241;-77
2023/10/10 02:01:47;;;;;;;24.50;22.93;;;;;;;;;;5112801;28;20725;-77
2023/10/10 02:04:14;;;;;;;23.07;21.77;;;;;;;;;;5110972;28;20452;-76
2023/10/10 02:06:45;;;;;;;25.23;23.70;;;;;;;;;;5112162;28;21062;-76
2023/10/10 02:09:18;;;;;;;23.43;22.03;;;;;;;;;;5111884;28;20467;-76
2023/10/10 02:11:54;;;;;;;23.37;22.03;;;;;;;;;;5112407;28;20424;-77
2023/10/10 02:14:25;;;;;;;25.07;23.40;;;;;;;;;;5111652;28;20448;-76
2023/10/10 02:16:54;;;;;;;25.23;23.40;;;;;;;;;;5112085;28;20970;-76
2023/10/10 02:19:33;;;;;;;23.47;22.00;;;;;;;;;;5112298;28;20535;-76
2023/10/10 02:22:19;;;;;;;23.33;21.93;;;;;;;;;;5112192;28;20467;-76
2023/10/10 02:24:49;;;;;;;23.07;21.50;;;;;;;;;;5111408;28;20435;-77
2023/10/10 02:27:22;;;;;;;25.00;23.30;;;;;;;;;;5112017;28;20524;-76
2023/10/10 02:29:49;;;;;;;24.60;23.03;;;;;;;;;;5112001;28;20433;-76
2023/10/10 02:32:20;;;;;;;24.67;23.17;;;;;;;;;;5112174;28;20440;-76
2023/10/10 02:34:56;;;;;;;25.93;24.30;;;;;;;;;;5111719;28;20452;-76
2023/10/10 02:40:12;;;;;;;25.07;23.23;;;;;;;;;;5111094;28;20429;-77
2023/10/10 02:42:48;;;;;;;26.77;24.97;;;;;;;;;;5112143;28;20495;-76
2023/10/10 02:45:16;;;;;;;27.00;24.90;;;;;;;;;;5111679;28;20428;-77
2023/10/10 02:47:46;;;;;;;25.97;24.10;;;;;;;;;;5111821;28;20464;-76
2023/10/10 02:50:38;;;;;;;26.60;24.80;;;;;;;;;;5111938;28;20486;-76
2023/10/10 02:53:07;;;;;;;27.20;25.30;;;;;;;;;;5111400;28;20501;-75
2023/10/10 02:55:34;;;;;;;32.50;29.37;;;;;;;;;;5111303;28;20442;-76
2023/10/10 02:58:08;;;;;;;32.80;30.10;;;;;;;;;;5111780;28;20496;-76
2023/10/10 03:00:37;;;;;;;37.80;34.13;;;;;;;;;;5111606;28;20432;-77
2023/10/10 03:03:05;;;;;;;37.70;34.20;;;;;;;;;;5111474;28;20791;-77
2023/10/10 03:05:43;;;;;;;38.00;34.57;;;;;;;;;;5110209;28;20823;-76
2023/10/10 03:08:15;;;;;;;42.67;38.37;;;;;;;;;;5111564;28;20471;-76
2023/10/10 03:10:45;;;;;;;43.90;39.40;;;;;;;;;;5111284;28;20968;-78
2023/10/10 03:13:27;;;;;;;49.10;42.10;;;;;;;;;;5111285;28;20531;-76
2023/10/10 03:15:56;;;;;;;48.17;43.17;;;;;;;;;;5110372;28;20440;-76
2023/10/10 03:18:28;;;;;;;49.03;42.63;;;;;;;;;;5110819;28;20448;-77
2023/10/10 03:21:35;;;;;;;46.17;41.70;;;;;;;;;;5110794;28;20892;-76
2023/10/10 03:24:15;;;;;;;47.90;43.23;;;;;;;;;;5110387;28;20452;-77
2023/10/10 03:29:46;;;;;;;55.40;43.77;;;;;;;;;;5100347;28;20471;-77
2023/10/10 03:32:19;;;;;;;48.97;42.90;;;;;;;;;;5090926;28;20431;-76
2023/10/10 03:34:56;;;;;;;49.40;44.33;;;;;;;;;;5090301;28;20784;-76
2023/10/10 03:37:29;;;;;;;53.07;44.77;;;;;;;;;;5090871;28;20467;-78
2023/10/10 03:39:58;;;;;;;52.30;46.73;;;;;;;;;;5090539;28;20435;-76
2023/10/10 05:24:26;;;;;;;51.77;45.60;;;;;;;;;;5105223;28;20443;-77
2023/10/10 05:26:56;;;;;;;61.27;49.17;;;;;;;;;;5113393;28;20470;-76
2023/10/10 05:29:24;;;;;;;55.20;49.13;;;;;;;;;;5113388;28;20410;-77
2023/10/10 05:31:51;;;;;;;52.70;47.10;;;;;;;;;;5113261;28;20458;-76
2023/10/10 05:34:20;;;;;;;56.87;48.43;;;;;;;;;;5100548;28;20506;-79
2023/10/10 05:36:48;;;;;;;60.07;50.47;;;;;;;;;;5094239;28;20439;-78
2023/10/10 05:39:20;;;;;;;56.63;50.53;;;;;;;;;;5093768;28;20488;-79
2023/10/10 05:41:54;;;;;;;65.63;52.33;;;;;;;;;;5093801;28;20484;-79
2023/10/10 05:44:21;;;;;;;64.30;52.10;;;;;;;;;;5093091;28;20473;-76
2023/10/10 05:46:48;;;;;;;59.57;50.97;;;;;;;;;;5092493;28;20472;-77
2023/10/10 05:49:17;;;;;;;66.23;52.10;;;;;;;;;;5092519;28;20435;-76
2023/10/10 05:51:44;;;;;;;68.60;55.37;;;;;;;;;;5092555;28;20820;-77
2023/10/10 05:54:11;;;;;;;71.27;54.10;;;;;;;;;;5091545;28;20457;-77
2023/10/10 05:56:38;;;;;;;67.80;53.57;;;;;;;;;;5092285;28;20506;-77
2023/10/10 05:59:08;;;;;;;70.07;55.60;;;;;;;;;;5110412;28;20506;-80
2023/10/10 06:01:36;;;;;;;70.57;54.87;;;;;;;;;;5113429;28;20452;-77
2023/10/10 06:04:03;;;;;;;71.07;55.50;;;;;;;;;;5099949;28;21059;-77
2023/10/10 06:06:31;;;;;;;80.03;60.70;;;;;;;;;;5092123;28;20450;-77
2023/10/10 06:09:01;;;;;;;71.87;58.47;;;;;;;;;;5092402;28;20451;-77
2023/10/10 06:11:29;;;;;;;74.20;59.60;;;;;;;;;;5092130;28;21246;-78
2023/10/10 06:13:57;;;;;;;69.40;58.87;;;;;;;;;;5108187;27;21033;-83
2023/10/10 06:16:26;;;;;;;82.53;59.17;;;;;;;;;;5098850;28;20596;-78
2023/10/10 06:18:53;;;;;;;74.77;59.17;;;;;;;;;;5096527;28;20450;-81
2023/10/10 06:21:20;;;;;;;84.70;61.07;;;;;;;;;;5095141;28;20447;-76
2023/10/10 06:23:49;;;;;;;77.80;62.50;;;;;;;;;;5092099;28;20532;-81
2023/10/10 06:26:21;;;;;;;70.77;60.63;;;;;;;;;;5092205;28;20452;-76
2023/10/10 06:28:50;;;;;;;75.77;63.07;;;;;;;;;;5091837;28;20433;-77
2023/10/10 06:31:19;;;;;;;85.90;63.47;;;;;;;;;;5092507;28;20552;-76
2023/10/10 06:33:49;;;;;;;81.07;63.80;;;;;;;;;;5091712;28;20441;-75
2023/10/10 06:36:37;;;;;;;81.67;61.37;;;;;;;;;;5091203;28;20469;-77
2023/10/10 06:39:20;;;;;;;76.23;59.10;;;;;;;;;;5098592;28;20451;-76
2023/10/10 06:41:49;;;;;;;74.63;60.77;;;;;;;;;;5091079;28;20461;-77
2023/10/10 06:44:31;;;;;;;79.97;62.40;;;;;;;;;;5091107;28;20537;-77
2023/10/10 06:46:58;;;;;;;77.93;60.60;;;;;;;;;;5091718;28;20465;-76
2023/10/10 06:49:43;;;;;;;76.70;61.50;;;;;;;;;;5097200;28;20474;-77
2023/10/10 06:52:10;;;;;;;69.90;60.10;;;;;;;;;;5111877;28;20776;-76
2023/10/10 06:54:44;;;;;;;70.70;59.40;;;;;;;;;;5111040;28;20936;-77
2023/10/10 06:57:18;;;;;;;72.33;61.17;;;;;;;;;;5111821;28;20477;-75
2023/10/10 06:59:45;;;;;;;80.77;66.93;;;;;;;;;;5111439;28;20452;-76
2023/10/10 07:02:20;;;;;;;79.07;63.97;;;;;;;;;;5111793;28;20450;-75
2023/10/10 07:04:53;;;;;;;74.27;62.80;;;;;;;;;;5110979;28;20501;-77
2023/10/10 07:07:21;;;;;;;80.57;62.87;;;;;;;;;;5111925;28;20450;-76
2023/10/10 07:09:57;;;;;;;73.50;60.97;;;;;;;;;;5113039;28;20535;-78
2023/10/10 07:12:28;;;;;;;71.23;59.17;;;;;;;;;;5111779;28;20460;-77
2023/10/10 07:14:56;;;;;;;85.93;61.90;;;;;;;;;;5111176;28;20435;-76
2023/10/10 07:17:27;;;;;;;73.80;58.53;;;;;;;;;;5111689;28;20471;-76
2023/10/10 07:22:36;;;;;;;86.67;62.13;;;;;;;;;;5076509;28;20475;-78
2023/10/10 07:25:07;;;;;;;72.53;59.83;;;;;;;;;;5110464;28;20493;-75
2023/10/10 07:27:35;;;;;;;77.07;60.73;;;;;;;;;;5090535;28;20518;-76
2023/10/10 07:30:16;;;;;;;80.93;60.17;;;;;;;;;;5090607;28;20419;-75
2023/10/10 07:32:43;;;;;;;72.53;58.93;;;;;;;;;;5090717;28;20532;-77
2023/10/10 07:35:15;;;;;;;70.80;59.70;;;;;;;;;;5090388;28;20445;-76
2023/10/10 07:37:43;;;;;;;76.80;60.60;;;;;;;;;;5091093;28;20458;-77
2023/10/10 07:40:20;;;;;;;72.10;59.77;;;;;;;;;;5090861;28;20506;-75
2023/10/10 07:42:50;;;;;;;75.33;58.80;;;;;;;;;;5089742;28;20463;-77
2023/10/10 07:45:26;;;;;;;79.63;57.60;;;;;;;;;;5089851;28;20431;-76
2023/10/10 07:50:48;;;;;;;67.40;52.97;;;;;;;;;;5090253;28;20421;-77
2023/10/10 07:53:15;;;;;;;64.37;53.93;;;;;;;;;;5090534;28;20878;-76
2023/10/10 07:55:53;;;;;;;70.80;53.37;;;;;;;;;;5090229;28;20460;-75
2023/10/10 07:58:23;;;;;;;70.17;54.07;;;;;;;;;;5090607;28;20778;-76
2023/10/10 08:00:51;;;;;;;63.97;51.80;;;;;;;;;;5090475;28;20448;-74
2023/10/10 08:03:20;;;;;;;61.60;53.10;;;;;;;;;;5093108;28;20856;-77
2023/10/10 08:05:50;;;;;;;64.70;52.33;;;;;;;;;;5093997;28;20465;-76
2023/10/10 08:08:18;;;;;;;63.27;53.00;;;;;;;;;;5094648;28;20443;-76
2023/10/10 08:10:49;;;;;;;70.00;52.60;;;;;;;;;;5094798;28;20811;-76
2023/10/10 08:13:16;;;;;;;73.93;54.10;;;;;;;;;;5094086;28;20553;-75
2023/10/10 08:15:50;;;;;;;67.27;53.57;;;;;;;;;;5093774;28;20452;-77
2023/10/10 08:18:39;;;;;;;62.87;51.80;;;;;;;;;;5094313;28;20472;-77
2023/10/10 08:21:10;;;;;;;70.33;51.23;;;;;;;;;;5093945;28;20441;-76
2023/10/10 08:23:42;;;;;;;62.70;48.73;;;;;;;;;;5094246;28;20469;-76
2023/10/10 08:26:09;;;;;;;65.87;50.50;;;;;;;;;;5093940;28;20429;-77
2023/10/10 08:28:36;;;;;;;71.63;50.20;;;;;;;;;;5093647;28;20449;-75
2023/10/10 08:31:03;;;;;;;64.77;52.27;;;;;;;;;;5093858;28;20449;-76
2023/10/10 08:33:32;;;;;;;62.40;47.10;;;;;;;;;;5093792;28;20437;-75
2023/10/10 08:35:59;;;;;;;63.87;50.93;;;;;;;;;;5093562;28;20430;-76
2023/10/10 08:38:28;;;;;;;69.00;49.53;;;;;;;;;;5093778;28;20452;-76
2023/10/10 08:40:57;;;;;;;66.70;50.77;;;;;;;;;;5093889;28;20452;-76
2023/10/10 08:43:28;;;;;;;59.17;46.73;;;;;;;;;;5093438;28;20980;-76
2023/10/10 08:45:57;;;;;;;61.80;48.37;;;;;;;;;;5092965;28;20449;-75
2023/10/10 08:48:26;;;;;;;68.43;49.00;;;;;;;;;;5093966;28;20486;-76
2023/10/10 08:50:54;;;;;;;59.50;47.40;;;;;;;;;;5093726;28;20456;-76
2023/10/10 08:53:24;;;;;;;60.37;49.23;;;;;;;;;;5093704;28;20480;-76
2023/10/10 08:55:57;;;;;;;62.77;50.47;;;;;;;;;;5093204;28;21082;-76
2023/10/10 08:58:24;;;;;;;52.97;47.10;;;;;;;;;;5093870;28;20456;-77
2023/10/10 09:00:51;;;;;;;62.77;49.73;;;;;;;;;;5093974;28;20408;-77
2023/10/10 09:03:19;;;;;;;59.27;50.27;;;;;;;;;;5093751;28;20825;-76
2023/10/10 09:05:47;;;;;;;56.70;47.40;;;;;;;;;;5092916;28;20883;-75
2023/10/10 09:08:15;;;;;;;63.90;49.77;;;;;;;;;;5093707;28;20472;-76
2023/10/10 09:10:45;;;;;;;59.27;50.30;;;;;;;;;;5093763;28;20810;-76
2023/10/10 09:13:14;;;;;;;58.47;48.67;;;;;;;;;;5092945;28;20449;-76
2023/10/10 09:15:54;;;;;;;62.17;49.93;;;;;;;;;;5092651;28;20445;-76
2023/10/10 09:18:24;;;;;;;68.23;52.17;;;;;;;;;;5093645;28;20421;-77
2023/10/10 09:20:54;;;;;;;63.80;51.50;;;;;;;;;;5093460;28;20457;-76
2023/10/10 09:23:22;;;;;;;58.77;52.00;;;;;;;;;;5093292;28;20504;-76
2023/10/10 09:25:57;;;;;;;58.30;49.70;;;;;;;;;;5093077;28;20460;-76
2023/10/10 09:28:30;;;;;;;60.83;51.20;;;;;;;;;;5092978;28;20980;-76
2023/10/10 09:31:00;;;;;;;59.63;50.00;;;;;;;;;;5092921;28;20921;-76
2023/10/10 09:33:29;;;;;;;60.00;49.00;;;;;;;;;;5093117;28;20498;-76
2023/10/10 09:36:08;;;;;;;60.93;49.07;;;;;;;;;;5091968;28;20491;-75
2023/10/10 09:38:36;;;;;;;62.70;48.57;;;;;;;;;;5092909;28;20445;-76
2023/10/10 09:41:14;;;;;;;54.87;48.70;;;;;;;;;;5092649;28;20465;-76
2023/10/10 09:44:19;;;;;;;57.70;48.00;;;;;;;;;;5092536;28;20516;-76
2023/10/10 09:46:59;;;;;;;56.47;45.87;;;;;;;;;;5092321;28;20931;-76
2023/10/10 09:49:40;;;;;;;53.93;47.00;;;;;;;;;;5092805;28;20514;-76
2023/10/10 09:54:56;;;;;;;54.17;45.37;;;;;;;;;;5091908;28;20778;-76
2023/10/10 09:57:26;;;;;;;53.70;45.03;;;;;;;;;;5092588;28;20476;-76
2023/10/10 09:59:56;;;;;;;52.17;46.33;;;;;;;;;;5092699;28;20416;-75
2023/10/10 10:02:40;;;;;;;52.13;45.83;;;;;;;;;;5092463;28;20444;-77
2023/10/10 10:05:13;;;;;;;51.10;42.10;;;;;;;;;;5091875;28;20793;-77
2023/10/10 10:07:56;;;;;;;49.73;43.27;;;;;;;;;;5092257;28;20473;-76
2023/10/10 10:10:46;;;;;;;53.83;45.10;;;;;;;;;;5091991;28;20444;-76
2023/10/10 10:13:24;;;;;;;47.93;42.83;;;;;;;;;;5092450;28;20437;-76
2023/10/10 10:16:00;;;;;;;51.10;42.30;;;;;;;;;;5091174;28;20811;-76
2023/10/10 10:18:44;;;;;;;48.40;41.77;;;;;;;;;;5092171;28;20488;-76
2023/10/10 10:21:18;;;;;;;47.97;42.83;;;;;;;;;;5092113;28;20432;-76
2023/10/10 10:23:55;;;;;;;48.00;42.90;;;;;;;;;;5091860;28;20469;-77
2023/10/10 10:26:31;;;;;;;48.83;40.67;;;;;;;;;;5091135;28;20450;-76
2023/10/10 10:29:00;;;;;;;45.63;41.03;;;;;;;;;;5091692;28;20437;-76
2023/10/10 10:31:30;;;;;;;46.07;41.50;;;;;;;;;;5093898;28;20445;-76
2023/10/10 10:34:08;;;;;;;45.37;40.37;;;;;;;;;;5111731;28;20841;-76
2023/10/10 10:36:42;;;;;;;46.53;41.77;;;;;;;;;;5111971;28;20990;-76
2023/10/10 10:39:21;;;;;;;42.70;37.93;;;;;;;;;;5112135;28;20535;-77
2023/10/10 10:41:53;;;;;;;43.23;39.00;;;;;;;;;;5111978;28;20896;-76
2023/10/10 10:44:44;;;;;;;44.47;40.03;;;;;;;;;;5111789;28;20468;-76
2023/10/10 10:47:35;;;;;;;43.93;39.43;;;;;;;;;;5112072;28;20567;-77
2023/10/10 10:50:03;;;;;;;45.43;40.23;;;;;;;;;;5111570;28;20994;-76
2023/10/10 10:52:44;;;;;;;41.43;36.93;;;;;;;;;;5112425;28;20475;-76
2023/10/10 10:55:21;;;;;;;43.60;39.30;;;;;;;;;;5111415;28;20860;-76
2023/10/10 10:57:49;;;;;;;42.23;38.03;;;;;;;;;;5111898;28;20499;-76
2023/10/10 11:00:28;;;;;;;40.33;36.20;;;;;;;;;;5111790;28;20450;-76
2023/10/10 11:02:59;;;;;;;41.50;37.40;;;;;;;;;;5111421;28;20446;-76
2023/10/10 11:05:28;;;;;;;40.07;36.37;;;;;;;;;;5110867;28;20432;-77
2023/10/10 11:08:06;;;;;;;40.80;36.70;;;;;;;;;;5111166;28;21010;-78
2023/10/10 11:10:36;;;;;;;41.50;37.30;;;;;;;;;;5111636;28;20406;-76
2023/10/10 11:13:07;;;;;;;40.53;36.63;;;;;;;;;;5111333;28;20954;-76
2023/10/10 11:15:37;;;;;;;39.07;35.57;;;;;;;;;;5111051;28;20432;-76
2023/10/10 11:18:08;;;;;;;37.57;33.63;;;;;;;;;;5110910;28;20477;-76
2023/10/10 11:20:56;;;;;;;40.27;36.40;;;;;;;;;;5111265;28;20471;-76
2023/10/10 11:23:41;;;;;;;37.07;32.90;;;;;;;;;;5111178;28;20560;-76
2023/10/10 11:26:09;;;;;;;40.70;36.13;;;;;;;;;;5111088;28;20440;-76
2023/10/10 11:28:45;;;;;;;37.77;33.80;;;;;;;;;;5111243;28;20472;-76
2023/10/10 11:31:14;;;;;;;35.67;32.40;;;;;;;;;;5111393;28;20428;-77
2023/10/10 11:33:55;;;;;;;38.10;34.63;;;;;;;;;;5111311;28;20450;-76
2023/10/10 11:36:29;;;;;;;33.90;30.67;;;;;;;;;;5111217;28;20553;-77
2023/10/10 11:38:56;;;;;;;38.90;35.30;;;;;;;;;;5110951;28;20906;-77
2023/10/10 11:41:29;;;;;;;39.77;35.83;;;;;;;;;;5110806;28;20451;-77
2023/10/10 11:43:59;;;;;;;37.47;33.67;;;;;;;;;;5110222;28;20480;-76
2023/10/10 11:46:27;;;;;;;36.77;33.50;;;;;;;;;;5110840;28;20955;-76
2023/10/10 11:48:55;;;;;;;39.83;35.83;;;;;;;;;;5111193;28;20454;-76
2023/10/10 11:51:33;;;;;;;38.83;35.20;;;;;;;;;;5111180;28;20469;-77
2023/10/10 11:54:00;;;;;;;38.97;35.33;;;;;;;;;;5110449;28;20448;-76
2023/10/10 11:56:31;;;;;;;39.73;35.90;;;;;;;;;;5110752;28;20853;-77
2023/10/10 11:58:58;;;;;;;38.47;35.07;;;;;;;;;;5111315;28;20460;-76
2023/10/10 12:04:20;;;;;;;37.33;34.03;;;;;;;;;;5109193;28;20536;-76
2023/10/10 12:06:47;;;;;;;38.87;35.07;;;;;;;;;;5111027;28;20819;-75
2023/10/10 12:09:18;;;;;;;36.97;33.47;;;;;;;;;;5107730;28;20479;-76
2023/10/10 12:11:45;;;;;;;36.47;33.20;;;;;;;;;;5102599;28;20916;-76
2023/10/10 12:14:18;;;;;;;36.83;33.60;;;;;;;;;;5090022;28;20448;-76
2023/10/10 12:16:50;;;;;;;37.47;33.67;;;;;;;;;;5090478;28;20461;-76
2023/10/10 12:19:18;;;;;;;38.17;34.23;;;;;;;;;;5090228;28;20892;-76
2023/10/10 12:21:45;;;;;;;37.00;33.50;;;;;;;;;;5090332;28;20459;-77
2023/10/10 12:24:13;;;;;;;37.07;33.60;;;;;;;;;;5089887;28;20480;-76
2023/10/10 12:26:41;;;;;;;34.67;31.47;;;;;;;;;;5090215;28;20491;-76
2023/10/10 12:29:10;;;;;;;35.63;32.50;;;;;;;;;;5090149;28;20437;-76
2023/10/10 12:31:37;;;;;;;35.63;32.13;;;;;;;;;;5090255;28;20456;-75
2023/10/10 12:34:09;;;;;;;34.90;31.47;;;;;;;;;;5089371;28;20952;-78
2023/10/10 12:36:37;;;;;;;32.50;29.90;;;;;;;;;;5090260;28;20476;-78
2023/10/10 12:39:14;;;;;;;32.17;29.43;;;;;;;;;;5090250;28;20519;-76
2023/10/10 12:41:45;;;;;;;31.27;28.47;;;;;;;;;;5089972;28;20463;-76
2023/10/10 12:44:13;;;;;;;31.53;28.53;;;;;;;;;;5089794;28;20468;-76
2023/10/10 12:46:40;;;;;;;29.73;27.43;;;;;;;;;;5089973;28;20456;-77
2023/10/10 12:49:11;;;;;;;29.43;26.93;;;;;;;;;;5092385;28;20471;-75
2023/10/10 12:51:44;;;;;;;30.27;27.77;;;;;;;;;;5094093;28;20437;-75
2023/10/10 12:54:13;;;;;;;31.40;28.70;;;;;;;;;;5093493;28;20425;-75
2023/10/10 12:56:48;;;;;;;30.13;27.47;;;;;;;;;;5093758;28;20465;-76
2023/10/10 12:59:18;;;;;;;28.90;26.67;;;;;;;;;;5093734;28;20440;-76
2023/10/10 13:01:45;;;;;;;30.33;27.93;;;;;;;;;;5093555;28;20432;-77
2023/10/10 13:04:17;;;;;;;30.30;27.90;;;;;;;;;;5100015;28;20483;-77
2023/10/10 13:06:51;;;;;;;29.73;27.30;;;;;;;;;;5093856;28;20447;-76
2023/10/10 13:09:19;;;;;;;28.70;26.50;;;;;;;;;;5093589;28;20429;-77
2023/10/10 13:11:47;;;;;;;32.53;29.83;;;;;;;;;;5097166;28;20833;-77
2023/10/10 13:14:18;;;;;;;29.13;27.03;;;;;;;;;;5092370;28;20457;-77
2023/10/10 13:17:13;;;;;;;28.63;26.20;;;;;;;;;;5095626;28;20484;-76
2023/10/10 13:19:40;;;;;;;28.87;26.57;;;;;;;;;;5112846;28;20462;-76
2023/10/10 13:22:20;;;;;;;28.40;26.10;;;;;;;;;;5113461;28;20452;-75
2023/10/10 13:24:47;;;;;;;28.90;26.63;;;;;;;;;;5112696;28;20467;-76
2023/10/10 13:27:15;;;;;;;28.40;26.03;;;;;;;;;;5093560;28;20473;-76
2023/10/10 13:29:42;;;;;;;29.10;26.60;;;;;;;;;;5092100;28;20476;-75
2023/10/10 13:32:09;;;;;;;29.77;27.17;;;;;;;;;;5092827;28;20490;-75
2023/10/10 13:34:37;;;;;;;26.93;25.03;;;;;;;;;;5091930;28;20433;-76
2023/10/10 13:37:07;;;;;;;27.07;25.00;;;;;;;;;;5092512;28;20473;-76
2023/10/10 13:39:43;;;;;;;28.97;26.43;;;;;;;;;;5092860;28;20917;-76
2023/10/10 13:42:10;;;;;;;28.50;26.07;;;;;;;;;;5092158;28;20535;-76
2023/10/10 13:44:37;;;;;;;28.00;25.67;;;;;;;;;;5092182;28;20492;-77
2023/10/10 13:47:04;;;;;;;29.80;27.20;;;;;;;;;;5107281;28;21057;-76
2023/10/10 13:49:32;;;;;;;27.80;25.77;;;;;;;;;;5113128;28;20517;-76
2023/10/10 13:51:59;;;;;;;29.90;27.40;;;;;;;;;;5112730;28;22355;-76
2023/10/10 13:54:27;;;;;;;28.77;26.60;;;;;;;;;;5112234;28;20452;-75
2023/10/10 13:56:55;;;;;;;27.17;25.00;;;;;;;;;;5112810;28;20463;-76
2023/10/10 13:59:22;;;;;;;28.00;25.90;;;;;;;;;;5112329;28;20468;-77
2023/10/10 14:01:52;;;;;;;28.13;25.77;;;;;;;;;;5112645;28;20581;-76
2023/10/10 14:04:26;;;;;;;27.23;24.87;;;;;;;;;;5112019;28;20983;-76
2023/10/10 14:06:54;;;;;;;27.47;24.97;;;;;;;;;;5112399;28;20959;-78
2023/10/10 14:09:24;;;;;;;26.97;25.00;;;;;;;;;;5112590;28;20450;-76
2023/10/10 14:11:52;;;;;;;26.07;24.00;;;;;;;;;;5109799;28;20441;-77
2023/10/10 14:14:20;;;;;;;28.27;25.90;;;;;;;;;;5091069;28;20433;-76
2023/10/10 14:16:48;;;;;;;26.20;24.20;;;;;;;;;;5092363;28;20475;-76
2023/10/10 14:19:15;;;;;;;26.50;24.60;;;;;;;;;;5092087;28;20936;-76
2023/10/10 14:21:42;;;;;;;26.87;24.27;;;;;;;;;;5092416;28;20419;-76
2023/10/10 14:24:12;;;;;;;25.80;23.90;;;;;;;;;;5091367;28;20453;-75
2023/10/10 14:26:43;;;;;;;25.37;23.37;;;;;;;;;;5092064;28;20551;-76
2023/10/10 14:29:12;;;;;;;26.83;24.63;;;;;;;;;;5091995;28;20408;-77
2023/10/10 14:31:43;;;;;;;27.27;25.30;;;;;;;;;;5091608;28;20457;-75
2023/10/10 14:34:15;;;;;;;25.50;23.80;;;;;;;;;;5091080;28;20498;-75
2023/10/10 14:36:42;;;;;;;25.10;23.00;;;;;;;;;;5091465;28;20960;-75
2023/10/10 14:39:28;;;;;;;26.80;24.90;;;;;;;;;;5091534;28;20449;-77
2023/10/10 14:41:56;;;;;;;26.00;24.00;;;;;;;;;;5091420;28;20487;-76
2023/10/10 14:44:26;;;;;;;26.63;24.43;;;;;;;;;;5091067;28;20516;-75
2023/10/10 14:46:55;;;;;;;25.73;23.30;;;;;;;;;;5091507;28;20504;-77
2023/10/10 14:49:29;;;;;;;26.53;24.57;;;;;;;;;;5091208;28;20535;-76
2023/10/10 14:52:00;;;;;;;26.47;24.37;;;;;;;;;;5091428;28;20518;-77
2023/10/10 14:54:27;;;;;;;26.63;24.73;;;;;;;;;;5090983;28;20532;-76
2023/10/10 14:56:54;;;;;;;25.97;24.07;;;;;;;;;;5091333;28;20518;-76
2023/10/10 14:59:25;;;;;;;25.70;23.60;;;;;;;;;;5091231;28;20926;-76
2023/10/10 15:01:52;;;;;;;26.50;24.60;;;;;;;;;;5091329;28;20534;-77
2023/10/10 15:04:22;;;;;;;25.93;24.23;;;;;;;;;;5090775;28;20490;-76
2023/10/10 15:06:53;;;;;;;26.70;24.60;;;;;;;;;;5090996;28;20477;-76
2023/10/10 15:09:23;;;;;;;26.97;24.77;;;;;;;;;;5091331;28;20403;-75
2023/10/10 15:11:51;;;;;;;28.13;25.63;;;;;;;;;;5090765;28;20539;-77
2023/10/10 15:14:19;;;;;;;25.53;23.73;;;;;;;;;;5090171;28;20461;-75
2023/10/10 15:16:47;;;;;;;25.80;23.87;;;;;;;;;;5093262;28;20554;-75
2023/10/10 15:19:14;;;;;;;26.60;24.50;;;;;;;;;;5100060;28;20955;-74
2023/10/10 15:21:47;;;;;;;25.70;23.80;;;;;;;;;;5100087;28;20482;-76
2023/10/10 15:24:15;;;;;;;25.87;24.07;;;;;;;;;;5108774;28;20970;-76
2023/10/10 15:26:45;;;;;;;26.13;24.23;;;;;;;;;;5111234;28;20496;-77
2023/10/10 15:29:12;;;;;;;26.00;24.00;;;;;;;;;;5111348;28;20527;-76
2023/10/10 15:31:40;;;;;;;27.90;25.80;;;;;;;;;;5110696;28;20564;-76
2023/10/10 15:34:07;;;;;;;27.50;25.30;;;;;;;;;;5105242;28;20931;-75
2023/10/10 15:36:35;;;;;;;26.80;24.70;;;;;;;;;;5093944;28;20552;-76
2023/10/10 15:39:05;;;;;;;25.83;24.03;;;;;;;;;;5111082;28;20443;-75
2023/10/10 15:41:34;;;;;;;26.03;24.13;;;;;;;;;;5110651;28;20455;-76
2023/10/10 15:44:02;;;;;;;26.93;24.30;;;;;;;;;;5110544;28;20444;-76
2023/10/10 15:46:30;;;;;;;26.60;24.60;;;;;;;;;;5110652;28;20550;-76
2023/10/10 15:48:59;;;;;;;25.70;23.70;;;;;;;;;;5110711;28;20538;-75
2023/10/10 15:51:26;;;;;;;25.80;23.80;;;;;;;;;;5106607;28;20517;-75
2023/10/10 15:53:54;;;;;;;25.93;24.10;;;;;;;;;;5109119;28;20456;-76
2023/10/10 15:56:27;;;;;;;26.83;24.60;;;;;;;;;;5109089;28;20478;-76
2023/10/10 15:58:54;;;;;;;27.40;24.90;;;;;;;;;;5096477;28;20460;-76
2023/10/10 16:01:28;;;;;;;25.30;23.33;;;;;;;;;;5111021;28;20942;-77
2023/10/10 16:03:59;;;;;;;26.10;24.10;;;;;;;;;;5111098;28;20945;-77
2023/10/10 16:06:26;;;;;;;26.17;24.40;;;;;;;;;;5112050;28;20479;-76
2023/10/10 16:08:54;;;;;;;25.73;23.93;;;;;;;;;;5111569;28;20443;-77
2023/10/10 16:11:21;;;;;;;25.37;23.50;;;;;;;;;;5111234;28;20546;-76
2023/10/10 16:13:50;;;;;;;26.60;24.70;;;;;;;;;;5110353;28;21230;-74
2023/10/10 16:16:18;;;;;;;25.27;23.43;;;;;;;;;;5111160;28;20465;-76
2023/10/10 16:18:46;;;;;;;25.87;23.43;;;;;;;;;;5110697;28;20547;-76
2023/10/10 16:21:15;;;;;;;24.33;22.73;;;;;;;;;;5111108;28;20447;-76
2023/10/10 16:23:43;;;;;;;24.33;22.60;;;;;;;;;;5113618;28;20448;-78
2023/10/10 16:26:11;;;;;;;24.53;22.83;;;;;;;;;;5101537;28;20520;-76
2023/10/10 16:28:38;;;;;;;25.30;23.20;;;;;;;;;;5094248;28;20495;-76
2023/10/10 16:31:08;;;;;;;25.47;23.30;;;;;;;;;;5093331;28;20468;-76
2023/10/10 16:33:38;;;;;;;25.97;23.63;;;;;;;;;;5094974;28;20532;-76
2023/10/10 16:36:07;;;;;;;23.90;22.30;;;;;;;;;;5093102;28;20448;-76
2023/10/10 16:38:36;;;;;;;24.53;22.70;;;;;;;;;;5094107;28;20449;-76
2023/10/10 16:41:03;;;;;;;24.60;22.80;;;;;;;;;;5092814;28;21010;-77